createdAt,value
2024-05-09T00:00:52.473Z,23.56
2024-05-09T00:01:55.996Z,23.56
2024-05-09T00:02:59.390Z,23.56
2024-05-09T00:04:02.788Z,23.55
2024-05-09T00:05:06.235Z,23.55
2024-05-09T00:06:10.107Z,23.55
2024-05-09T00:07:13.683Z,23.55
2024-05-09T00:08:16.953Z,23.54
2024-05-09T00:09:20.383Z,23.53
2024-05-09T00:10:28.742Z,23.53
2024-05-09T00:11:40.941Z,23.62
2024-05-09T00:12:46.538Z,23.62
2024-05-09T00:13:49.636Z,23.62
2024-05-09T00:14:52.800Z,23.6
2024-05-09T00:15:56.023Z,23.58
2024-05-09T00:16:59.310Z,23.58
2024-05-09T00:18:03.222Z,23.56
2024-05-09T00:19:07.559Z,23.56
2024-05-09T00:20:14.182Z,23.56
2024-05-09T00:21:28.714Z,23.64
2024-05-09T00:22:32.208Z,23.64
2024-05-09T00:23:35.502Z,23.62
2024-05-09T00:24:39.135Z,23.59
2024-05-09T00:25:42.359Z,23.58
2024-05-09T00:26:47.118Z,23.57
2024-05-09T00:27:50.298Z,23.56
2024-05-09T00:28:53.500Z,23.56
2024-05-09T00:29:56.844Z,23.54
2024-05-09T00:31:00.031Z,23.53
2024-05-09T00:32:03.323Z,23.53
2024-05-09T00:33:07.673Z,23.52
2024-05-09T00:34:14.953Z,23.55
2024-05-09T00:35:19.497Z,23.56
2024-05-09T00:36:22.834Z,23.56
2024-05-09T00:37:27.605Z,23.54
2024-05-09T00:38:31.157Z,23.54
2024-05-09T00:39:34.877Z,23.53
2024-05-09T00:40:41.395Z,23.53
2024-05-09T00:41:46.970Z,23.56
2024-05-09T00:42:50.296Z,23.56
2024-05-09T00:43:53.626Z,23.55
2024-05-09T00:44:58.448Z,23.54
2024-05-09T00:46:01.692Z,23.54
2024-05-09T00:47:06.460Z,23.53
2024-05-09T00:48:11.190Z,23.54
2024-05-09T00:49:22.889Z,23.6
2024-05-09T00:50:33.573Z,23.6
2024-05-09T00:51:42.979Z,23.65
2024-05-09T00:52:46.546Z,23.65
2024-05-09T00:53:49.977Z,23.63
2024-05-09T00:54:55.195Z,23.59
2024-05-09T00:55:58.472Z,23.59
2024-05-09T00:57:01.892Z,23.58
2024-05-09T00:58:07.301Z,23.55
2024-05-09T00:59:10.554Z,23.55
2024-05-09T01:00:22.057Z,23.54
2024-05-09T01:01:35.870Z,23.65
2024-05-09T01:02:39.459Z,23.65
2024-05-09T01:03:43.033Z,23.63
2024-05-09T01:04:51.653Z,23.63
2024-05-09T01:05:55.445Z,23.61
2024-05-09T01:06:59.131Z,23.59
2024-05-09T01:08:04.445Z,23.57
2024-05-09T01:09:08.194Z,23.57
2024-05-09T01:10:13.644Z,23.55
2024-05-09T01:11:30.347Z,23.64
2024-05-09T01:12:33.969Z,23.63
2024-05-09T01:13:37.418Z,23.61
2024-05-09T01:14:40.707Z,23.58
2024-05-09T01:15:43.979Z,23.56
2024-05-09T01:16:47.244Z,23.55
2024-05-09T01:17:50.838Z,23.52
2024-05-09T01:18:54.888Z,23.52
2024-05-09T01:20:00.753Z,23.52
2024-05-09T01:21:03.986Z,23.53
2024-05-09T01:22:08.860Z,23.52
2024-05-09T01:23:12.459Z,23.52
2024-05-09T01:24:21.710Z,23.53
2024-05-09T01:25:24.872Z,23.54
2024-05-09T01:26:30.128Z,23.52
2024-05-09T01:27:33.784Z,23.53
2024-05-09T01:28:39.050Z,23.52
2024-05-09T01:29:42.194Z,23.51
2024-05-09T01:30:45.464Z,23.51
2024-05-09T01:31:48.741Z,23.5
2024-05-09T01:32:52.121Z,23.5
2024-05-09T01:33:55.772Z,23.49
2024-05-09T01:34:59.639Z,23.48
2024-05-09T01:39:04.633Z,23.94
2024-05-09T01:40:12.017Z,23.97
2024-05-09T01:41:20.630Z,23.94
2024-05-09T01:42:24.189Z,23.86
2024-05-09T01:43:29.428Z,23.77
2024-05-09T01:44:34.676Z,23.72
2024-05-09T01:45:37.943Z,23.67
2024-05-09T01:46:41.213Z,23.63
2024-05-09T01:47:44.601Z,23.59
2024-05-09T01:48:48.624Z,23.57
2024-05-09T01:49:52.377Z,23.55
2024-05-09T01:50:55.903Z,23.53
2024-05-09T01:51:59.297Z,23.51
2024-05-09T01:53:02.534Z,23.5
2024-05-09T01:54:05.985Z,23.49
2024-05-09T01:55:09.233Z,23.48
2024-05-09T01:56:12.555Z,23.47
2024-05-09T01:57:15.979Z,23.47
2024-05-09T01:58:19.258Z,23.47
2024-05-09T01:59:22.620Z,23.47
2024-05-09T02:00:30.788Z,23.47
2024-05-09T02:01:55.031Z,23.56
2024-05-09T02:02:57.189Z,23.63
2024-05-09T02:04:00.639Z,23.61
2024-05-09T02:05:04.703Z,23.58
2024-05-09T02:06:08.724Z,23.56
2024-05-09T02:07:13.732Z,23.53
2024-05-09T02:08:19.291Z,23.53
2024-05-09T02:09:23.521Z,23.54
2024-05-09T02:10:31.650Z,23.52
2024-05-09T02:11:38.780Z,23.55
2024-05-09T02:12:42.144Z,23.55
2024-05-09T02:13:45.378Z,23.53
2024-05-09T02:14:48.776Z,23.51
2024-05-09T02:15:53.439Z,23.49
2024-05-09T02:16:58.616Z,23.49
2024-05-09T02:18:04.113Z,23.49
2024-05-09T02:19:07.894Z,23.5
2024-05-09T02:20:16.318Z,23.5
2024-05-09T02:21:35.067Z,23.58
2024-05-09T02:22:38.086Z,23.6
2024-05-09T02:23:41.318Z,23.58
2024-05-09T02:24:44.733Z,23.54
2024-05-09T02:25:48.053Z,23.52
2024-05-09T02:26:51.514Z,23.5
2024-05-09T02:27:56.638Z,23.49
2024-05-09T02:28:59.904Z,23.49
2024-05-09T02:30:03.634Z,23.48
2024-05-09T02:31:21.084Z,23.55
2024-05-09T02:32:24.369Z,23.55
2024-05-09T02:33:29.893Z,23.53
2024-05-09T02:34:35.637Z,23.53
2024-05-09T02:35:40.851Z,23.52
2024-05-09T02:36:44.634Z,23.51
2024-05-09T02:37:47.905Z,23.5
2024-05-09T02:38:51.252Z,23.48
2024-05-09T02:39:54.392Z,23.47
2024-05-09T02:40:57.646Z,23.46
2024-05-09T02:42:02.539Z,23.45
2024-05-09T02:43:08.103Z,23.45
2024-05-09T02:44:17.578Z,23.49
2024-05-09T02:45:20.867Z,23.5
2024-05-09T02:46:26.139Z,23.49
2024-05-09T02:47:29.508Z,23.49
2024-05-09T02:48:33.534Z,23.48
2024-05-09T02:49:37.157Z,23.47
2024-05-09T02:50:41.054Z,23.46
2024-05-09T02:51:47.509Z,23.46
2024-05-09T02:52:50.774Z,23.47
2024-05-09T02:53:54.013Z,23.46
2024-05-09T02:54:59.147Z,23.44
2024-05-09T02:56:03.852Z,23.45
2024-05-09T02:57:07.173Z,23.46
2024-05-09T02:58:12.396Z,23.45
2024-05-09T02:59:15.934Z,23.45
2024-05-09T03:00:25.680Z,23.45
2024-05-09T03:01:39.375Z,23.56
2024-05-09T03:02:42.822Z,23.54
2024-05-09T03:03:46.992Z,23.52
2024-05-09T03:04:50.972Z,23.5
2024-05-09T03:05:54.474Z,23.49
2024-05-09T03:06:57.866Z,23.47
2024-05-09T03:08:01.286Z,23.46
2024-05-09T03:09:06.886Z,23.45
2024-05-09T03:10:14.845Z,23.46
2024-05-09T03:11:28.177Z,23.55
2024-05-09T03:12:35.802Z,23.55
2024-05-09T03:13:42.191Z,23.56
2024-05-09T03:14:45.387Z,23.54
2024-05-09T03:15:48.483Z,23.51
2024-05-09T03:16:53.147Z,23.48
2024-05-09T03:17:56.458Z,23.47
2024-05-09T03:19:00.190Z,23.46
2024-05-09T03:20:05.097Z,23.44
2024-05-09T03:21:20.115Z,23.52
2024-05-09T03:22:23.281Z,23.52
2024-05-09T03:23:26.691Z,23.5
2024-05-09T03:24:32.376Z,23.48
2024-05-09T03:25:35.500Z,23.47
2024-05-09T03:26:38.782Z,23.46
2024-05-09T03:27:42.293Z,23.45
2024-05-09T03:28:47.552Z,23.43
2024-05-09T03:29:50.887Z,23.43
2024-05-09T03:30:54.084Z,23.42
2024-05-09T03:31:57.371Z,23.41
2024-05-09T03:33:01.023Z,23.4
2024-05-09T03:34:05.134Z,23.4
2024-05-09T03:35:11.117Z,23.4
2024-05-09T03:36:14.510Z,23.42
2024-05-09T03:37:17.706Z,23.41
2024-05-09T03:38:20.892Z,23.4
2024-05-09T03:39:24.412Z,23.4
2024-05-09T03:40:30.961Z,23.39
2024-05-09T03:41:34.680Z,23.41
2024-05-09T03:42:38.065Z,23.41
2024-05-09T03:43:41.268Z,23.4
2024-05-09T03:44:44.530Z,23.39
2024-05-09T03:45:49.782Z,23.39
2024-05-09T03:46:53.055Z,23.4
2024-05-09T03:47:56.625Z,23.39
2024-05-09T03:49:00.987Z,23.4
2024-05-09T03:50:05.557Z,23.39
2024-05-09T03:51:20.674Z,23.47
2024-05-09T03:52:24.021Z,23.48
2024-05-09T03:53:27.264Z,23.46
2024-05-09T03:54:30.787Z,23.44
2024-05-09T03:55:34.051Z,23.44
2024-05-09T03:56:37.248Z,23.42
2024-05-09T03:57:40.514Z,23.41
2024-05-09T03:58:43.630Z,23.4
2024-05-09T03:59:48.969Z,23.4
2024-05-09T04:00:54.134Z,23.4
2024-05-09T04:01:57.518Z,23.41
2024-05-09T04:03:03.366Z,23.4
2024-05-09T04:04:09.847Z,23.42
2024-05-09T04:05:13.298Z,23.42
2024-05-09T04:06:16.746Z,23.41
2024-05-09T04:07:20.073Z,23.4
2024-05-09T04:08:23.368Z,23.39
2024-05-09T04:09:26.799Z,23.39
2024-05-09T04:10:32.696Z,23.38
2024-05-09T04:11:38.530Z,23.41
2024-05-09T04:12:41.912Z,23.41
2024-05-09T04:13:45.057Z,23.4
2024-05-09T04:14:50.346Z,23.39
2024-05-09T04:15:55.650Z,23.4
2024-05-09T04:17:00.929Z,23.4
2024-05-09T04:18:04.393Z,23.41
2024-05-09T04:19:08.691Z,23.41
2024-05-09T04:20:21.033Z,23.4
2024-05-09T04:21:32.257Z,23.51
2024-05-09T04:22:35.468Z,23.5
2024-05-09T04:23:38.672Z,23.48
2024-05-09T04:24:42.258Z,23.45
2024-05-09T04:25:47.631Z,23.42
2024-05-09T04:26:52.907Z,23.42
2024-05-09T04:27:56.036Z,23.42
2024-05-09T04:28:59.282Z,23.41
2024-05-09T04:30:02.895Z,23.4
2024-05-09T04:31:12.971Z,23.45
2024-05-09T04:32:16.267Z,23.43
2024-05-09T04:33:21.770Z,23.41
2024-05-09T04:34:25.967Z,23.42
2024-05-09T04:35:29.638Z,23.41
2024-05-09T04:36:33.171Z,23.39
2024-05-09T04:37:38.359Z,23.39
2024-05-09T04:38:41.467Z,23.38
2024-05-09T04:39:44.870Z,23.38
2024-05-09T04:40:50.079Z,23.37
2024-05-09T04:41:53.365Z,23.38
2024-05-09T04:42:58.570Z,23.37
2024-05-09T04:44:01.819Z,23.38
2024-05-09T04:45:05.236Z,23.37
2024-05-09T04:46:08.488Z,23.37
2024-05-09T04:47:11.851Z,23.36
2024-05-09T04:48:15.646Z,23.36
2024-05-09T04:49:20.124Z,23.37
2024-05-09T04:50:28.992Z,23.37
2024-05-09T04:51:41.497Z,23.46
2024-05-09T04:52:44.660Z,23.46
2024-05-09T04:53:49.422Z,23.43
2024-05-09T04:54:53.530Z,23.42
2024-05-09T04:56:01.947Z,23.44
2024-05-09T04:57:05.281Z,23.42
2024-05-09T04:58:08.548Z,23.4
2024-05-09T04:59:14.167Z,23.39
2024-05-09T05:00:21.494Z,23.39
2024-05-09T05:01:35.308Z,23.48
2024-05-09T05:02:38.880Z,23.47
2024-05-09T05:03:42.676Z,23.44
2024-05-09T05:04:46.915Z,23.43
2024-05-09T05:05:52.713Z,23.41
2024-05-09T05:06:57.774Z,23.42
2024-05-09T05:08:07.521Z,23.45
2024-05-09T05:09:10.762Z,23.44
2024-05-09T05:10:17.882Z,23.41
2024-05-09T05:11:31.772Z,23.5
2024-05-09T05:12:35.378Z,23.49
2024-05-09T05:13:41.385Z,23.46
2024-05-09T05:14:44.886Z,23.47
2024-05-09T05:15:48.126Z,23.45
2024-05-09T05:16:51.494Z,23.42
2024-05-09T05:17:57.074Z,23.41
2024-05-09T05:19:01.006Z,23.41
2024-05-09T05:20:05.815Z,23.41
2024-05-09T05:21:18.610Z,23.44
2024-05-09T05:22:22.511Z,23.44
2024-05-09T05:23:25.800Z,23.41
2024-05-09T05:24:29.235Z,23.39
2024-05-09T05:25:32.518Z,23.37
2024-05-09T05:26:35.907Z,23.35
2024-05-09T05:27:41.333Z,23.34
2024-05-09T05:28:44.502Z,23.33
2024-05-09T05:29:47.906Z,23.33
2024-05-09T05:30:51.210Z,23.31
2024-05-09T05:31:54.516Z,23.3
2024-05-09T05:32:58.292Z,23.31
2024-05-09T05:34:01.962Z,23.3
2024-05-09T05:35:05.502Z,23.3
2024-05-09T05:36:08.887Z,23.3
2024-05-09T05:37:14.071Z,23.3
2024-05-09T05:38:17.291Z,23.31
2024-05-09T05:39:21.061Z,23.32
2024-05-09T05:40:28.118Z,23.32
2024-05-09T05:41:37.222Z,23.39
2024-05-09T05:42:40.435Z,23.39
2024-05-09T05:43:43.688Z,23.39
2024-05-09T05:44:47.267Z,23.39
2024-05-09T05:45:50.411Z,23.39
2024-05-09T05:46:53.567Z,23.38
2024-05-09T05:47:57.041Z,23.39
2024-05-09T05:49:01.200Z,23.4
2024-05-09T05:50:07.058Z,23.4
2024-05-09T05:51:22.293Z,23.51
2024-05-09T05:52:25.678Z,23.51
2024-05-09T05:53:28.937Z,23.5
2024-05-09T05:54:32.481Z,23.5
2024-05-09T05:55:35.783Z,23.48
2024-05-09T05:56:38.992Z,23.47
2024-05-09T05:57:42.250Z,23.48
2024-05-09T05:58:47.037Z,23.48
2024-05-09T05:59:51.246Z,23.49
2024-05-09T06:00:56.491Z,23.5
2024-05-09T06:01:59.836Z,23.52
2024-05-09T06:03:05.587Z,23.51
2024-05-09T06:04:09.951Z,23.53
2024-05-09T06:05:13.561Z,23.53
2024-05-09T06:06:17.241Z,23.53
2024-05-09T06:07:22.851Z,23.55
2024-05-09T06:08:30.128Z,23.55
2024-05-09T06:09:33.868Z,23.59
2024-05-09T06:10:38.490Z,23.59
2024-05-09T06:11:45.563Z,23.62
2024-05-09T06:12:49.219Z,23.62
2024-05-09T06:13:52.624Z,23.62
2024-05-09T06:14:56.129Z,23.61
2024-05-09T06:15:59.383Z,23.6
2024-05-09T06:17:04.603Z,23.61
2024-05-09T06:18:10.545Z,23.63
2024-05-09T06:19:16.325Z,23.66
2024-05-09T06:20:23.575Z,23.67
2024-05-09T06:21:37.820Z,23.77
2024-05-09T06:22:40.935Z,23.76
2024-05-09T06:23:44.147Z,23.74
2024-05-09T06:24:47.526Z,23.72
2024-05-09T06:25:50.745Z,23.71
2024-05-09T06:26:54.198Z,23.7
2024-05-09T06:27:57.373Z,23.7
2024-05-09T06:29:00.583Z,23.7
2024-05-09T06:30:03.980Z,23.7
2024-05-09T06:31:16.170Z,23.76
2024-05-09T06:32:19.614Z,23.76
2024-05-09T06:33:25.167Z,23.75
2024-05-09T06:34:29.489Z,23.76
2024-05-09T06:35:33.500Z,23.77
2024-05-09T06:36:37.412Z,23.78
2024-05-09T06:37:40.597Z,23.78
2024-05-09T06:38:45.805Z,23.76
2024-05-09T06:39:50.622Z,23.79
2024-05-09T06:40:53.756Z,23.8
2024-05-09T06:41:57.079Z,23.79
2024-05-09T06:43:00.313Z,23.79
2024-05-09T06:44:03.729Z,23.78
2024-05-09T06:45:09.103Z,23.79
2024-05-09T06:46:12.267Z,23.81
2024-05-09T06:47:15.679Z,23.81
2024-05-09T06:48:19.706Z,23.83
2024-05-09T06:49:25.704Z,23.85
2024-05-09T06:50:31.773Z,23.85
2024-05-09T06:51:41.378Z,23.92
2024-05-09T06:52:44.512Z,23.93
2024-05-09T06:53:47.881Z,23.92
2024-05-09T06:54:51.074Z,23.9
2024-05-09T06:55:54.275Z,23.9
2024-05-09T06:56:57.660Z,23.9
2024-05-09T06:58:02.910Z,23.89
2024-05-09T06:59:06.158Z,23.91
2024-05-09T07:00:12.852Z,23.91
2024-05-09T07:01:30.710Z,24.03
2024-05-09T07:02:35.538Z,24.04
2024-05-09T07:03:39.267Z,24.04
2024-05-09T07:04:42.766Z,24.03
2024-05-09T07:05:46.942Z,24.02
2024-05-09T07:06:53.027Z,24.02
2024-05-09T07:07:58.378Z,24.02
2024-05-09T07:09:03.738Z,24.02
2024-05-09T07:10:07.984Z,24.04
2024-05-09T07:11:24.823Z,24.13
2024-05-09T07:12:28.535Z,24.13
2024-05-09T07:13:32.158Z,24.11
2024-05-09T07:14:36.873Z,24.09
2024-05-09T07:15:41.889Z,24.09
2024-05-09T07:16:45.524Z,24.09
2024-05-09T07:17:51.173Z,24.08
2024-05-09T07:18:56.755Z,24.08
2024-05-09T07:20:00.752Z,24.1
2024-05-09T07:21:04.372Z,24.11
2024-05-09T07:22:07.851Z,24.1
2024-05-09T07:23:11.331Z,24.09
2024-05-09T07:24:21.102Z,24.09
2024-05-09T07:25:24.211Z,24.13
2024-05-09T07:26:29.423Z,24.12
2024-05-09T07:27:32.816Z,24.13
2024-05-09T07:28:36.027Z,24.13
2024-05-09T07:29:39.241Z,24.13
2024-05-09T07:30:42.723Z,24.13
2024-05-09T07:31:46.033Z,24.13
2024-05-09T07:32:50.933Z,24.13
2024-05-09T07:33:54.590Z,24.14
2024-05-09T07:34:59.729Z,24.15
2024-05-09T07:36:03.145Z,24.16
2024-05-09T07:37:06.378Z,24.17
2024-05-09T07:38:11.723Z,24.16
2024-05-09T07:39:15.096Z,24.18
2024-05-09T07:40:24.706Z,24.16
2024-05-09T07:41:36.327Z,24.28
2024-05-09T07:42:39.549Z,24.27
2024-05-09T07:43:42.723Z,24.26
2024-05-09T07:44:45.999Z,24.25
2024-05-09T07:45:52.861Z,24.24
2024-05-09T07:47:37.052Z,24.28
2024-05-09T07:54:06.401Z,24.44
2024-05-09T07:55:11.560Z,24.42
2024-05-09T07:56:16.608Z,24.39
2024-05-09T07:57:25.002Z,24.37
2024-05-09T07:58:28.420Z,24.37
2024-05-09T07:59:34.225Z,24.35
2024-05-09T08:00:41.189Z,24.36
2024-05-09T08:01:45.004Z,24.34
2024-05-09T08:02:48.779Z,24.33
2024-05-09T08:03:52.069Z,24.31
2024-05-09T08:04:56.279Z,24.33
2024-05-09T08:05:59.997Z,24.32
2024-05-09T08:07:03.288Z,24.3
2024-05-09T08:08:08.786Z,24.29
2024-05-09T08:09:13.808Z,24.3
2024-05-09T08:10:27.507Z,24.37
2024-05-09T08:11:35.730Z,24.4
2024-05-09T08:12:41.005Z,24.42
2024-05-09T08:13:46.477Z,24.41
2024-05-09T08:14:49.619Z,24.41
2024-05-09T08:15:52.977Z,24.37
2024-05-09T08:16:58.441Z,24.35
2024-05-09T08:18:01.740Z,24.36
2024-05-09T08:19:07.520Z,24.35
2024-05-09T08:21:24.215Z,24.42
2024-05-09T08:22:27.382Z,24.41
2024-05-09T08:23:30.696Z,24.4
2024-05-09T08:24:39.459Z,24.38
2024-05-09T08:25:42.784Z,24.41
2024-05-09T08:26:46.037Z,24.4
2024-05-09T08:27:49.276Z,24.39
2024-05-09T08:28:52.507Z,24.38
2024-05-09T08:29:55.751Z,24.37
2024-05-09T08:31:00.496Z,24.37
2024-05-09T08:32:10.351Z,24.41
2024-05-09T08:33:13.861Z,24.41
2024-05-09T08:34:17.578Z,24.41
2024-05-09T08:35:21.375Z,24.42
2024-05-09T08:36:24.650Z,24.4
2024-05-09T08:37:31.026Z,24.4
2024-05-09T08:38:43.375Z,24.49
2024-05-09T08:39:46.626Z,24.48
2024-05-09T08:40:50.029Z,24.46
2024-05-09T08:41:53.557Z,24.43
2024-05-09T08:42:56.850Z,24.44
2024-05-09T08:44:00.275Z,24.43
2024-05-09T08:45:03.609Z,24.42
2024-05-09T08:46:06.881Z,24.43
2024-05-09T08:47:10.338Z,24.43
2024-05-09T08:48:14.619Z,24.43
2024-05-09T08:49:20.081Z,24.44
2024-05-09T08:50:29.104Z,24.44
2024-05-09T08:51:41.801Z,24.57
2024-05-09T08:52:45.059Z,24.55
2024-05-09T08:53:49.424Z,24.53
2024-05-09T08:54:52.560Z,24.51
2024-05-09T08:55:57.467Z,24.51
2024-05-09T08:57:00.625Z,24.51
2024-05-09T08:58:03.925Z,24.51
2024-05-09T08:59:07.449Z,24.51
2024-05-09T09:00:14.872Z,24.5
2024-05-09T09:01:28.623Z,24.58
2024-05-09T09:02:32.302Z,24.57
2024-05-09T09:03:38.324Z,24.56
2024-05-09T09:04:42.790Z,24.56
2024-05-09T09:05:46.274Z,24.55
2024-05-09T09:06:49.552Z,24.53
2024-05-09T09:07:52.762Z,24.52
2024-05-09T09:08:56.068Z,24.5
2024-05-09T09:09:59.373Z,24.52
2024-05-09T09:11:02.891Z,24.51
2024-05-09T09:12:07.866Z,24.51
2024-05-09T09:13:15.404Z,24.52
2024-05-09T09:14:21.207Z,24.54
2024-05-09T09:15:26.419Z,24.55
2024-05-09T09:16:30.079Z,24.56
2024-05-09T09:17:33.597Z,24.55
2024-05-09T09:18:37.496Z,24.54
2024-05-09T09:19:41.877Z,24.56
2024-05-09T09:20:45.569Z,24.55
2024-05-09T09:21:49.150Z,24.55
2024-05-09T09:22:54.492Z,24.55
2024-05-09T09:23:57.679Z,24.55
2024-05-09T09:25:00.980Z,24.56
2024-05-09T09:26:04.455Z,24.56
2024-05-09T09:27:07.746Z,24.56
2024-05-09T09:28:11.193Z,24.54
2024-05-09T09:29:14.664Z,24.54
2024-05-09T09:30:27.237Z,24.54
2024-05-09T09:31:35.860Z,24.63
2024-05-09T09:32:39.242Z,24.65
2024-05-09T09:33:43.015Z,24.62
2024-05-09T09:34:47.111Z,24.61
2024-05-09T09:35:50.315Z,24.61
2024-05-09T09:36:55.031Z,24.62
2024-05-09T09:37:58.368Z,24.62
2024-05-09T09:39:01.539Z,24.59
2024-05-09T09:40:05.788Z,24.58
2024-05-09T09:41:11.877Z,24.59
2024-05-09T09:42:15.182Z,24.6
2024-05-09T09:43:20.560Z,24.58
2024-05-09T09:44:25.126Z,24.61
2024-05-09T09:45:28.397Z,24.61
2024-05-09T09:46:31.932Z,24.61
2024-05-09T09:47:35.590Z,24.62
2024-05-09T09:48:39.205Z,24.6
2024-05-09T09:49:43.059Z,24.6
2024-05-09T09:50:46.784Z,24.61
2024-05-09T09:51:49.918Z,24.59
2024-05-09T09:52:53.143Z,24.59
2024-05-09T09:53:56.418Z,24.6
2024-05-09T09:55:01.155Z,24.61
2024-05-09T09:56:04.627Z,24.63
2024-05-09T09:57:07.849Z,24.62
2024-05-09T09:58:13.101Z,24.63
2024-05-09T09:59:17.903Z,24.65
2024-05-09T10:00:24.197Z,24.65
2024-05-09T10:01:36.773Z,24.75
2024-05-09T10:02:41.964Z,24.76
2024-05-09T10:03:45.497Z,24.76
2024-05-09T10:04:49.308Z,24.76
2024-05-09T10:05:52.647Z,24.74
2024-05-09T10:06:58.215Z,24.73
2024-05-09T10:08:01.645Z,24.73
2024-05-09T10:09:04.853Z,24.72
2024-05-09T10:10:09.349Z,24.71
2024-05-09T10:11:24.053Z,24.8
2024-05-09T10:12:27.344Z,24.79
2024-05-09T10:13:30.846Z,24.77
2024-05-09T10:14:34.186Z,24.75
2024-05-09T10:15:37.476Z,24.74
2024-05-09T10:16:40.794Z,24.73
2024-05-09T10:17:45.067Z,24.73
2024-05-09T10:18:48.502Z,24.72
2024-05-09T10:19:53.424Z,24.69
2024-05-09T10:20:57.043Z,24.68
2024-05-09T10:22:00.546Z,24.68
2024-05-09T10:23:04.045Z,24.68
2024-05-09T10:24:07.291Z,24.66
2024-05-09T10:25:10.616Z,24.67
2024-05-09T10:26:14.031Z,24.67
2024-05-09T10:27:17.316Z,24.64
2024-05-09T10:28:22.611Z,24.64
2024-05-09T10:29:25.850Z,24.65
2024-05-09T10:30:35.449Z,24.68
2024-05-09T10:31:42.908Z,24.73
2024-05-09T10:32:48.391Z,24.75
2024-05-09T10:33:52.196Z,24.72
2024-05-09T10:34:56.749Z,24.71
2024-05-09T10:36:00.394Z,24.7
2024-05-09T10:37:04.739Z,24.69
2024-05-09T10:38:08.743Z,24.69
2024-05-09T10:39:12.400Z,24.69
2024-05-09T10:40:22.823Z,24.68
2024-05-09T10:41:30.967Z,24.76
2024-05-09T10:42:34.305Z,24.74
2024-05-09T10:43:37.611Z,24.71
2024-05-09T10:44:40.917Z,24.69
2024-05-09T10:45:45.698Z,24.68
2024-05-09T10:46:48.912Z,24.69
2024-05-09T10:47:54.234Z,24.67
2024-05-09T10:48:58.280Z,24.67
2024-05-09T10:50:12.664Z,24.7
2024-05-09T10:51:25.124Z,24.77
2024-05-09T10:52:28.402Z,24.77
2024-05-09T10:53:31.824Z,24.73
2024-05-09T10:54:35.074Z,24.7
2024-05-09T10:55:38.585Z,24.69
2024-05-09T10:56:41.927Z,24.67
2024-05-09T10:57:45.390Z,24.65
2024-05-09T10:58:48.669Z,24.63
2024-05-09T10:59:54.054Z,24.6
2024-05-09T11:00:57.318Z,24.62
2024-05-09T11:02:02.729Z,24.61
2024-05-09T11:03:06.576Z,24.62
2024-05-09T11:04:10.194Z,24.61
2024-05-09T11:05:15.571Z,24.61
2024-05-09T11:06:19.355Z,24.59
2024-05-09T11:07:24.714Z,24.58
2024-05-09T11:08:34.223Z,24.58
2024-05-09T11:09:37.449Z,24.6
2024-05-09T11:10:40.983Z,24.59
2024-05-09T11:11:44.644Z,24.58
2024-05-09T11:12:47.904Z,24.57
2024-05-09T11:13:53.283Z,24.55
2024-05-09T11:14:56.500Z,24.56
2024-05-09T11:15:59.777Z,24.56
2024-05-09T11:17:03.673Z,24.54
2024-05-09T11:18:07.212Z,24.53
2024-05-09T11:19:12.143Z,24.53
2024-05-09T11:20:19.801Z,24.55
2024-05-09T11:21:32.993Z,24.62
2024-05-09T11:22:37.275Z,24.6
2024-05-09T11:23:42.529Z,24.58
2024-05-09T11:24:45.852Z,24.56
2024-05-09T11:25:49.146Z,24.54
2024-05-09T11:26:52.474Z,24.53
2024-05-09T11:27:55.795Z,24.53
2024-05-09T11:28:59.346Z,24.52
2024-05-09T11:30:05.794Z,24.53
2024-05-09T11:31:22.086Z,24.6
2024-05-09T11:32:26.307Z,24.61
2024-05-09T11:33:30.174Z,24.59
2024-05-09T11:34:35.871Z,24.57
2024-05-09T11:35:41.028Z,24.57
2024-05-09T11:36:46.267Z,24.57
2024-05-09T11:37:49.990Z,24.57
2024-05-09T11:38:53.136Z,24.55
2024-05-09T11:39:56.386Z,24.53
2024-05-09T11:41:01.856Z,24.51
2024-05-09T11:42:05.034Z,24.51
2024-05-09T11:43:08.360Z,24.49
2024-05-09T11:44:11.952Z,24.48
2024-05-09T11:45:17.377Z,24.48
2024-05-09T11:46:20.945Z,24.49
2024-05-09T11:47:24.819Z,24.49
2024-05-09T11:48:28.611Z,24.48
2024-05-09T11:49:32.592Z,24.47
2024-05-09T11:50:36.484Z,24.46
2024-05-09T11:51:40.054Z,24.45
2024-05-09T11:52:43.508Z,24.44
2024-05-09T11:53:48.829Z,24.43
2024-05-09T11:54:52.017Z,24.44
2024-05-09T11:55:55.316Z,24.43
2024-05-09T11:56:58.634Z,24.42
2024-05-09T11:58:01.920Z,24.41
2024-05-09T11:59:05.381Z,24.4
2024-05-09T12:00:09.570Z,24.4
2024-05-09T12:01:28.431Z,24.48
2024-05-09T12:02:34.074Z,24.5
2024-05-09T12:03:39.785Z,24.49
2024-05-09T12:04:43.532Z,24.48
2024-05-09T12:05:47.464Z,24.46
2024-05-09T12:06:51.138Z,24.44
2024-05-09T12:07:54.548Z,24.42
2024-05-09T12:08:57.730Z,24.4
2024-05-09T12:10:01.097Z,24.39
2024-05-09T12:11:04.720Z,24.37
2024-05-09T12:12:09.253Z,24.36
2024-05-09T12:13:12.488Z,24.36
2024-05-09T12:14:15.972Z,24.35
2024-05-09T12:15:19.414Z,24.34
2024-05-09T12:16:22.867Z,24.33
2024-05-09T12:17:27.344Z,24.33
2024-05-09T12:18:30.922Z,24.32
2024-05-09T12:19:34.809Z,24.32
2024-05-09T12:20:39.433Z,24.31
2024-05-09T12:21:44.649Z,24.33
2024-05-09T12:22:47.868Z,24.32
2024-05-09T12:23:51.079Z,24.31
2024-05-09T12:24:54.525Z,24.3
2024-05-09T12:26:00.176Z,24.29
2024-05-09T12:27:03.548Z,24.3
2024-05-09T12:28:06.852Z,24.29
2024-05-09T12:29:10.675Z,24.28
2024-05-09T12:30:20.670Z,24.26
2024-05-09T12:31:34.952Z,24.37
2024-05-09T12:32:38.363Z,24.36
2024-05-09T12:33:41.913Z,24.34
2024-05-09T12:34:45.543Z,24.32
2024-05-09T12:35:50.689Z,24.3
2024-05-09T12:36:54.689Z,24.29
2024-05-09T12:37:59.476Z,24.28
2024-05-09T12:39:04.837Z,24.27
2024-05-09T12:40:12.652Z,24.27
2024-05-09T12:41:27.934Z,24.34
2024-05-09T12:42:32.579Z,24.34
2024-05-09T12:43:37.414Z,24.33
2024-05-09T12:44:42.803Z,24.3
2024-05-09T12:45:48.067Z,24.28
2024-05-09T12:46:51.305Z,24.27
2024-05-09T12:47:54.487Z,24.25
2024-05-09T12:48:59.453Z,24.22
2024-05-09T12:50:03.047Z,24.22
2024-05-09T12:51:17.999Z,24.27
2024-05-09T12:52:21.230Z,24.27
2024-05-09T12:53:24.555Z,24.24
2024-05-09T12:54:29.020Z,24.22
2024-05-09T12:55:37.397Z,24.21
2024-05-09T12:56:51.412Z,24.29
2024-05-09T12:57:54.553Z,24.27
2024-05-09T12:58:59.274Z,24.24
2024-05-09T13:00:03.046Z,24.23
2024-05-09T13:01:08.791Z,24.22
2024-05-09T13:02:12.698Z,24.2
2024-05-09T13:03:17.153Z,24.19
2024-05-09T13:04:20.886Z,24.17
2024-05-09T13:05:25.810Z,24.15
2024-05-09T13:06:32.619Z,24.15
2024-05-09T13:07:36.199Z,24.16
2024-05-09T13:08:41.443Z,24.14
2024-05-09T13:09:44.776Z,24.14
2024-05-09T13:10:48.210Z,24.12
2024-05-09T13:11:53.702Z,24.11
2024-05-09T13:12:57.024Z,24.12
2024-05-09T13:14:00.540Z,24.11
2024-05-09T13:15:05.913Z,24.09
2024-05-09T13:16:10.083Z,24.1
2024-05-09T13:17:15.607Z,24.09
2024-05-09T13:18:24.468Z,24.09
2024-05-09T13:19:27.752Z,24.12
2024-05-09T13:21:40.781Z,24.12
2024-05-09T13:22:45.606Z,24.12
2024-05-09T13:23:51.747Z,24.1
2024-05-09T13:24:54.828Z,24.11
2024-05-09T13:26:00.191Z,24.09
2024-05-09T13:27:03.400Z,24.08
2024-05-09T13:28:08.331Z,24.05
2024-05-09T13:29:13.933Z,24.05
2024-05-09T13:30:25.461Z,24.05
2024-05-09T13:31:38.518Z,24.16
2024-05-09T13:32:41.899Z,24.16
2024-05-09T13:33:45.882Z,24.13
2024-05-09T13:34:49.228Z,24.1
2024-05-09T13:35:52.566Z,24.07
2024-05-09T13:36:55.893Z,24.04
2024-05-09T13:37:59.191Z,24.03
2024-05-09T13:39:02.447Z,24.01
2024-05-09T13:41:10.461Z,24
2024-05-09T13:42:13.729Z,23.99
2024-05-09T13:43:17.011Z,23.98
2024-05-09T13:44:21.182Z,23.98
2024-05-09T13:45:24.443Z,23.97
2024-05-09T13:46:27.817Z,23.96
2024-05-09T13:47:31.294Z,23.96
2024-05-09T13:48:35.050Z,23.95
2024-05-09T13:49:40.685Z,23.95
2024-05-09T13:50:46.312Z,23.95
2024-05-09T13:51:49.474Z,23.96
2024-05-09T13:52:52.667Z,23.95
2024-05-09T13:53:57.896Z,23.94
2024-05-09T13:55:01.120Z,23.95
2024-05-09T13:56:04.655Z,23.95
2024-05-09T13:57:07.876Z,23.93
2024-05-09T13:58:11.140Z,23.93
2024-05-09T13:59:14.545Z,23.92
2024-05-09T14:00:26.553Z,23.91
2024-05-09T14:01:37.297Z,24
2024-05-09T14:02:40.870Z,24.01
2024-05-09T14:03:46.991Z,24
2024-05-09T14:04:52.390Z,23.98
2024-05-09T14:05:55.772Z,23.98
2024-05-09T14:06:59.527Z,23.96
2024-05-09T14:08:02.945Z,23.95
2024-05-09T14:09:06.215Z,23.93
2024-05-09T14:10:15.824Z,23.91
2024-05-09T14:11:27.379Z,23.99